Time;durP1;ratioP1;P1;durP2;ratioP2;P2;SDS_P1;SDS_P2;PMS_P1;PMS_P2;Temp;Humidity;BMP_temperature;BMP_pressure;BME280_temperature;BME280_humidity;BME280_pressure;Samples;Min_cycle;Max_cycle;Signal;HPM_P1;HPM_P2
2021/08/25 00:00:12;;;;;;;7.65;4.03;;;;;;;;;;5033169;28;20039;-79
2021/08/25 00:02:39;;;;;;;7.38;4.10;;;;;;;;;;5032935;28;20465;-79
2021/08/25 00:05:06;;;;;;;6.80;4.22;;;;;;;;;;5033120;28;20112;-79
2021/08/25 00:07:31;;;;;;;6.53;4.03;;;;;;;;;;5012245;28;20030;-79
2021/08/25 00:09:57;;;;;;;10.05;4.18;;;;;;;;;;5022871;28;20041;-79
2021/08/25 00:12:22;;;;;;;7.25;4.57;;;;;;;;;;5031763;28;20549;-79
2021/08/25 00:14:48;;;;;;;7.97;4.13;;;;;;;;;;5032987;28;20639;-79
2021/08/25 00:17:13;;;;;;;6.45;4.15;;;;;;;;;;5032719;28;20056;-79
2021/08/25 00:19:41;;;;;;;6.88;4.38;;;;;;;;;;5031848;28;20033;-79
2021/08/25 00:22:06;;;;;;;7.57;4.80;;;;;;;;;;5031776;28;20104;-79
2021/08/25 00:24:32;;;;;;;9.45;4.65;;;;;;;;;;5032862;28;20032;-79
2021/08/25 00:26:58;;;;;;;7.18;4.45;;;;;;;;;;5031803;28;20036;-79
2021/08/25 00:29:23;;;;;;;7.35;4.38;;;;;;;;;;5015118;28;20439;-79
2021/08/25 00:31:49;;;;;;;8.00;4.50;;;;;;;;;;5031526;28;20416;-79
2021/08/25 00:34:14;;;;;;;7.95;4.75;;;;;;;;;;5011834;28;20379;-79
2021/08/25 00:36:39;;;;;;;7.20;4.32;;;;;;;;;;5027179;28;20079;-79
2021/08/25 00:39:06;;;;;;;7.65;4.70;;;;;;;;;;5015092;28;20033;-79
2021/08/25 00:41:32;;;;;;;8.07;4.80;;;;;;;;;;5028124;28;20064;-79
2021/08/25 00:43:57;;;;;;;6.90;4.80;;;;;;;;;;5011439;28;20056;-79
2021/08/25 00:46:23;;;;;;;8.55;5.47;;;;;;;;;;5032511;28;20033;-79
2021/08/25 00:48:49;;;;;;;7.72;4.50;;;;;;;;;;5032870;28;20029;-79
2021/08/25 00:51:16;;;;;;;8.38;4.93;;;;;;;;;;5032508;28;20112;-79
2021/08/25 00:53:43;;;;;;;6.53;4.63;;;;;;;;;;5005442;28;20021;-79
2021/08/25 00:56:08;;;;;;;12.05;5.20;;;;;;;;;;5031343;28;20570;-79
2021/08/25 00:58:42;;;;;;;7.25;5.25;;;;;;;;;;5032676;28;20021;-79
2021/08/25 01:01:32;;;;;;;9.02;5.15;;;;;;;;;;5031315;28;20025;-79
2021/08/25 01:04:02;;;;;;;7.32;4.88;;;;;;;;;;5024657;28;20026;-79
2021/08/25 01:06:29;;;;;;;8.70;4.88;;;;;;;;;;5031337;28;20017;-79
2021/08/25 01:08:58;;;;;;;9.05;4.72;;;;;;;;;;5033163;28;20066;-79
2021/08/25 01:11:23;;;;;;;7.63;4.80;;;;;;;;;;5044347;28;20025;-79
2021/08/25 01:13:49;;;;;;;7.53;4.95;;;;;;;;;;5018268;28;20132;-79
2021/08/25 01:16:15;;;;;;;9.23;5.13;;;;;;;;;;5018127;28;20064;-79
2021/08/25 01:18:41;;;;;;;7.95;4.70;;;;;;;;;;5034773;28;20037;-79
2021/08/25 01:21:07;;;;;;;7.55;4.95;;;;;;;;;;5036014;28;20025;-79
2021/08/25 01:23:34;;;;;;;9.63;5.20;;;;;;;;;;5002158;28;20036;-79
2021/08/25 01:26:01;;;;;;;8.25;4.93;;;;;;;;;;5032117;28;20025;-79
2021/08/25 01:28:30;;;;;;;7.63;5.22;;;;;;;;;;5035844;28;20444;-79
2021/08/25 01:30:56;;;;;;;9.27;5.20;;;;;;;;;;5034396;28;20108;-79
2021/08/25 01:33:23;;;;;;;7.15;4.97;;;;;;;;;;5015531;28;20548;-79
2021/08/25 01:35:49;;;;;;;10.70;4.93;;;;;;;;;;5034617;28;20473;-79
2021/08/25 01:38:31;;;;;;;7.30;5.20;;;;;;;;;;5017884;28;20033;-79
2021/08/25 01:40:57;;;;;;;6.87;4.63;;;;;;;;;;5031148;28;20124;-79
2021/08/25 01:43:22;;;;;;;8.15;4.70;;;;;;;;;;5031856;28;20536;-79
2021/08/25 01:45:47;;;;;;;7.25;4.90;;;;;;;;;;5017824;28;20076;-79
2021/08/25 01:48:13;;;;;;;7.63;5.15;;;;;;;;;;5017765;28;20032;-79
2021/08/25 01:50:40;;;;;;;7.55;5.22;;;;;;;;;;5034092;28;20033;-79
2021/08/25 01:53:05;;;;;;;9.05;5.50;;;;;;;;;;5017583;28;20061;-79
2021/08/25 01:55:31;;;;;;;8.43;5.68;;;;;;;;;;5034136;28;20021;-79
2021/08/25 01:57:56;;;;;;;9.48;5.68;;;;;;;;;;5034203;28;20025;-79
2021/08/25 02:00:21;;;;;;;7.45;5.07;;;;;;;;;;5017520;28;20033;-79
2021/08/25 02:02:47;;;;;;;7.32;5.20;;;;;;;;;;5035349;28;20041;-79
2021/08/25 02:05:13;;;;;;;8.90;5.82;;;;;;;;;;5017661;28;20029;-79
2021/08/25 02:07:38;;;;;;;8.85;5.63;;;;;;;;;;5033942;28;20060;-79
2021/08/25 02:10:05;;;;;;;10.35;5.60;;;;;;;;;;5035058;28;20026;-79
2021/08/25 02:12:30;;;;;;;8.20;5.50;;;;;;;;;;5035149;28;20044;-79
2021/08/25 02:14:55;;;;;;;8.43;5.50;;;;;;;;;;5034672;28;20026;-79
2021/08/25 02:17:21;;;;;;;10.40;5.68;;;;;;;;;;5033571;28;20464;-79
2021/08/25 02:19:46;;;;;;;7.28;5.13;;;;;;;;;;5013716;28;20022;-79
2021/08/25 02:22:12;;;;;;;10.85;5.47;;;;;;;;;;5024259;28;20392;-79
2021/08/25 02:24:37;;;;;;;9.57;5.38;;;;;;;;;;5033758;28;20037;-79
2021/08/25 02:27:03;;;;;;;8.07;5.40;;;;;;;;;;5033725;28;20036;-79
2021/08/25 02:29:28;;;;;;;8.07;5.45;;;;;;;;;;5033439;28;20047;-79
2021/08/25 02:31:54;;;;;;;9.93;5.28;;;;;;;;;;5034479;28;20039;-79
2021/08/25 02:34:19;;;;;;;8.15;5.10;;;;;;;;;;5017028;28;20041;-79
2021/08/25 02:36:44;;;;;;;10.75;5.63;;;;;;;;;;5033429;28;20078;-79
2021/08/25 02:39:10;;;;;;;9.30;5.60;;;;;;;;;;5033397;28;20025;-79
2021/08/25 02:41:35;;;;;;;7.93;5.28;;;;;;;;;;5034452;28;20147;-79
2021/08/25 02:44:01;;;;;;;8.43;5.07;;;;;;;;;;5016951;28;20029;-79
2021/08/25 02:46:26;;;;;;;7.15;4.90;;;;;;;;;;5016684;28;20021;-79
2021/08/25 02:48:52;;;;;;;7.93;5.05;;;;;;;;;;5013496;28;20572;-79
2021/08/25 02:51:17;;;;;;;8.15;5.63;;;;;;;;;;5031154;28;20029;-79
2021/08/25 02:53:42;;;;;;;8.90;5.47;;;;;;;;;;5034271;28;20032;-79
2021/08/25 02:56:08;;;;;;;8.27;5.68;;;;;;;;;;5034441;28;20413;-79
2021/08/25 02:58:34;;;;;;;7.78;5.10;;;;;;;;;;5000136;28;20025;-79
2021/08/25 03:00:59;;;;;;;8.70;5.60;;;;;;;;;;5016322;28;20034;-79
2021/08/25 03:03:25;;;;;;;7.45;5.22;;;;;;;;;;5033033;28;20021;-79
2021/08/25 03:05:50;;;;;;;8.43;5.40;;;;;;;;;;5033994;28;20025;-79
2021/08/25 03:08:16;;;;;;;8.95;5.68;;;;;;;;;;5034050;28;20044;-79
2021/08/25 03:10:41;;;;;;;8.80;6.35;;;;;;;;;;5020982;28;20026;-79
2021/08/25 03:13:07;;;;;;;10.32;5.63;;;;;;;;;;4999844;28;20033;-79
2021/08/25 03:15:32;;;;;;;7.63;6.00;;;;;;;;;;5032567;28;20029;-79
2021/08/25 03:17:58;;;;;;;11.63;6.32;;;;;;;;;;5032357;28;20065;-79
2021/08/25 03:20:23;;;;;;;8.20;6.22;;;;;;;;;;5032545;28;20025;-79
2021/08/25 03:22:49;;;;;;;8.77;6.13;;;;;;;;;;5032461;28;20037;-79
2021/08/25 03:25:14;;;;;;;9.15;6.20;;;;;;;;;;5032448;28;20074;-79
2021/08/25 03:27:40;;;;;;;8.35;6.13;;;;;;;;;;5012688;28;20036;-79
2021/08/25 03:30:07;;;;;;;8.63;6.55;;;;;;;;;;5030832;28;20018;-79
2021/08/25 03:32:33;;;;;;;12.63;6.80;;;;;;;;;;4998707;28;20030;-79
2021/08/25 03:34:58;;;;;;;8.75;6.30;;;;;;;;;;5033601;28;20032;-79
2021/08/25 03:37:24;;;;;;;9.02;6.65;;;;;;;;;;5015684;28;20021;-79
2021/08/25 03:39:49;;;;;;;11.75;6.78;;;;;;;;;;4999460;28;20036;-79
2021/08/25 03:42:15;;;;;;;10.40;6.55;;;;;;;;;;5033209;28;20032;-79
2021/08/25 03:44:40;;;;;;;8.57;6.35;;;;;;;;;;5033416;28;20030;-79
2021/08/25 03:47:07;;;;;;;9.70;6.57;;;;;;;;;;5014483;28;20095;-79
2021/08/25 03:49:34;;;;;;;9.75;6.45;;;;;;;;;;5033598;28;20491;-79
2021/08/25 03:52:00;;;;;;;10.10;6.45;;;;;;;;;;4998923;28;20501;-79
2021/08/25 03:54:26;;;;;;;9.38;6.72;;;;;;;;;;5033265;28;20025;-79
2021/08/25 03:56:52;;;;;;;9.43;6.47;;;;;;;;;;5031963;28;20033;-79
2021/08/25 03:59:17;;;;;;;10.52;5.97;;;;;;;;;;5015355;28;20025;-79
2021/08/25 04:01:42;;;;;;;9.95;6.47;;;;;;;;;;5031809;28;20504;-79
2021/08/25 04:04:08;;;;;;;11.18;6.32;;;;;;;;;;5033120;28;20029;-79
2021/08/25 04:06:38;;;;;;;8.57;6.15;;;;;;;;;;5032024;28;20026;-79
2021/08/25 04:09:05;;;;;;;9.93;6.40;;;;;;;;;;5015710;28;20088;-79
2021/08/25 04:11:31;;;;;;;10.30;6.63;;;;;;;;;;5031733;28;20040;-79
2021/08/25 04:13:57;;;;;;;8.93;6.60;;;;;;;;;;5021960;28;20026;-79
2021/08/25 04:16:23;;;;;;;10.32;7.00;;;;;;;;;;5032681;28;20052;-79
2021/08/25 04:18:48;;;;;;;9.75;6.38;;;;;;;;;;5032928;28;20068;-79
2021/08/25 04:21:14;;;;;;;9.88;6.93;;;;;;;;;;5015266;28;20489;-79
2021/08/25 04:23:39;;;;;;;8.60;6.25;;;;;;;;;;5031658;28;20033;-79
2021/08/25 04:26:04;;;;;;;9.35;6.50;;;;;;;;;;5015401;28;20021;-79
2021/08/25 04:28:30;;;;;;;10.23;6.47;;;;;;;;;;5031506;28;20119;-79
2021/08/25 04:30:56;;;;;;;9.50;6.80;;;;;;;;;;4999139;28;20124;-79
2021/08/25 04:33:21;;;;;;;11.57;6.97;;;;;;;;;;5031521;28;20116;-79
2021/08/25 04:35:47;;;;;;;10.73;6.93;;;;;;;;;;5031925;28;20048;-79
2021/08/25 04:38:12;;;;;;;11.05;7.00;;;;;;;;;;5031665;28;20060;-79
2021/08/25 04:40:37;;;;;;;9.52;6.65;;;;;;;;;;5014983;28;20025;-79
2021/08/25 04:43:03;;;;;;;9.63;6.97;;;;;;;;;;5031452;28;20116;-79
2021/08/25 04:45:28;;;;;;;9.77;6.47;;;;;;;;;;5034995;28;20033;-79
2021/08/25 04:47:54;;;;;;;9.32;6.43;;;;;;;;;;5036559;28;20030;-79
2021/08/25 04:50:19;;;;;;;17.10;6.85;;;;;;;;;;5035560;28;20079;-79
2021/08/25 04:52:45;;;;;;;9.65;6.72;;;;;;;;;;5018630;28;20595;-79
2021/08/25 04:55:10;;;;;;;10.73;7.25;;;;;;;;;;5035302;28;20037;-79
2021/08/25 04:57:36;;;;;;;10.60;7.13;;;;;;;;;;5035320;28;20040;-79
2021/08/25 05:00:02;;;;;;;11.18;7.05;;;;;;;;;;4999130;28;20129;-79
2021/08/25 05:02:28;;;;;;;11.43;7.25;;;;;;;;;;5034764;28;20026;-79
2021/08/25 05:04:53;;;;;;;10.88;7.05;;;;;;;;;;5035186;28;20089;-79
2021/08/25 05:07:18;;;;;;;9.25;6.75;;;;;;;;;;5022445;28;20034;-79
2021/08/25 05:09:44;;;;;;;12.13;6.95;;;;;;;;;;5018826;28;20036;-79
2021/08/25 05:12:09;;;;;;;10.77;7.90;;;;;;;;;;5047539;28;20477;-79
2021/08/25 05:14:35;;;;;;;10.98;6.72;;;;;;;;;;5034947;28;20105;-79
2021/08/25 05:17:02;;;;;;;9.38;6.88;;;;;;;;;;5035977;28;20057;-79
2021/08/25 05:19:27;;;;;;;11.32;7.43;;;;;;;;;;5036121;28;20029;-79
2021/08/25 05:21:53;;;;;;;10.18;6.72;;;;;;;;;;5034746;28;20120;-79
2021/08/25 05:24:19;;;;;;;9.90;7.45;;;;;;;;;;5034765;28;20036;-79
2021/08/25 05:26:45;;;;;;;13.27;7.20;;;;;;;;;;5036068;28;20025;-79
2021/08/25 05:29:10;;;;;;;10.05;7.20;;;;;;;;;;5015029;28;20022;-79
2021/08/25 05:31:36;;;;;;;9.60;6.75;;;;;;;;;;5031019;28;20584;-79
2021/08/25 05:34:01;;;;;;;9.88;6.82;;;;;;;;;;4998463;28;20032;-79
2021/08/25 05:36:27;;;;;;;10.07;7.47;;;;;;;;;;5024507;28;20477;-79
2021/08/25 05:38:52;;;;;;;10.15;7.15;;;;;;;;;;5035625;28;20028;-79
2021/08/25 05:41:17;;;;;;;10.35;7.70;;;;;;;;;;5035603;28;20404;-79
2021/08/25 05:43:43;;;;;;;9.88;6.60;;;;;;;;;;5018135;28;20500;-79
2021/08/25 05:46:09;;;;;;;9.93;7.07;;;;;;;;;;5017456;28;20033;-79
2021/08/25 05:48:34;;;;;;;8.98;7.03;;;;;;;;;;5018106;28;20083;-79
2021/08/25 05:50:59;;;;;;;12.57;7.03;;;;;;;;;;5014324;28;20038;-79
2021/08/25 05:53:25;;;;;;;8.52;6.60;;;;;;;;;;5025705;28;20033;-79
2021/08/25 05:55:50;;;;;;;10.57;7.22;;;;;;;;;;5033031;28;20025;-79
2021/08/25 05:58:16;;;;;;;8.82;6.60;;;;;;;;;;5035310;28;20060;-79
2021/08/25 06:00:41;;;;;;;9.80;6.93;;;;;;;;;;5034546;28;20380;-79
2021/08/25 06:03:07;;;;;;;10.68;7.18;;;;;;;;;;5034186;28;20108;-79
2021/08/25 06:05:32;;;;;;;8.88;6.45;;;;;;;;;;5001378;28;20384;-79
2021/08/25 06:07:58;;;;;;;9.05;6.43;;;;;;;;;;5035153;28;20040;-79
2021/08/25 06:10:23;;;;;;;10.32;6.60;;;;;;;;;;5036410;28;20473;-79
2021/08/25 06:12:48;;;;;;;10.25;7.13;;;;;;;;;;5033939;28;20033;-79
2021/08/25 06:15:14;;;;;;;9.05;6.82;;;;;;;;;;5033859;28;20083;-79
2021/08/25 06:17:39;;;;;;;11.40;7.20;;;;;;;;;;5033569;28;20080;-79
2021/08/25 06:20:06;;;;;;;8.95;6.95;;;;;;;;;;5013765;28;20033;-79
2021/08/25 06:22:32;;;;;;;10.02;7.13;;;;;;;;;;5029403;28;20017;-79
2021/08/25 06:24:57;;;;;;;12.27;7.13;;;;;;;;;;5033804;28;20029;-79
2021/08/25 06:27:24;;;;;;;9.00;6.78;;;;;;;;;;5033633;28;20527;-79
2021/08/25 06:29:49;;;;;;;10.75;7.03;;;;;;;;;;5031696;28;20361;-79
2021/08/25 06:32:15;;;;;;;12.32;7.43;;;;;;;;;;5016952;28;20446;-79
2021/08/25 06:34:40;;;;;;;9.75;7.10;;;;;;;;;;5033705;28;20095;-79
2021/08/25 06:37:06;;;;;;;10.55;6.95;;;;;;;;;;5030249;28;20036;-79
2021/08/25 06:39:31;;;;;;;11.85;7.00;;;;;;;;;;5029602;28;20120;-79
2021/08/25 06:41:57;;;;;;;10.35;6.80;;;;;;;;;;5034465;28;20034;-79
2021/08/25 06:44:22;;;;;;;10.23;7.05;;;;;;;;;;5033289;28;20033;-79
2021/08/25 06:46:48;;;;;;;12.00;7.90;;;;;;;;;;5013534;28;20032;-79
2021/08/25 06:49:13;;;;;;;10.60;7.30;;;;;;;;;;5008083;28;20033;-79
2021/08/25 06:51:39;;;;;;;10.25;7.05;;;;;;;;;;5000430;28;20481;-78
2021/08/25 06:54:04;;;;;;;11.30;7.72;;;;;;;;;;5034284;28;20481;-78
2021/08/25 06:56:29;;;;;;;11.15;8.52;;;;;;;;;;5016907;28;20030;-78
2021/08/25 06:58:55;;;;;;;12.35;8.57;;;;;;;;;;5032852;28;20358;-78
2021/08/25 07:01:21;;;;;;;11.80;7.70;;;;;;;;;;5033047;28;20010;-78
2021/08/25 07:03:47;;;;;;;11.88;8.07;;;;;;;;;;5034081;28;20030;-78
2021/08/25 07:06:12;;;;;;;11.60;8.30;;;;;;;;;;5034310;28;20036;-78
2021/08/25 07:08:38;;;;;;;10.70;8.38;;;;;;;;;;5034046;28;20102;-78
2021/08/25 07:11:03;;;;;;;11.55;8.02;;;;;;;;;;5032836;28;20030;-78
2021/08/25 07:13:29;;;;;;;13.85;9.20;;;;;;;;;;4997209;28;20442;-78
2021/08/25 07:15:54;;;;;;;12.27;8.88;;;;;;;;;;5034162;28;20075;-78
2021/08/25 07:18:19;;;;;;;14.10;8.80;;;;;;;;;;5032547;28;20519;-78
2021/08/25 07:20:46;;;;;;;12.98;8.02;;;;;;;;;;5032739;28;20108;-78
2021/08/25 07:23:11;;;;;;;11.57;8.35;;;;;;;;;;5032738;28;20025;-78
2021/08/25 07:25:37;;;;;;;11.23;8.50;;;;;;;;;;5032716;28;20036;-79
2021/08/25 07:28:02;;;;;;;12.23;8.23;;;;;;;;;;5034053;28;20037;-79
2021/08/25 07:30:28;;;;;;;12.52;8.40;;;;;;;;;;5016161;28;20470;-78
2021/08/25 07:32:53;;;;;;;10.55;7.55;;;;;;;;;;5012887;28;20065;-78
2021/08/25 07:35:19;;;;;;;11.02;8.23;;;;;;;;;;5030802;28;20132;-79
2021/08/25 07:37:44;;;;;;;10.93;8.18;;;;;;;;;;5032708;28;20056;-79
2021/08/25 07:40:10;;;;;;;12.60;8.23;;;;;;;;;;5012724;28;20084;-79
2021/08/25 07:42:36;;;;;;;10.88;8.07;;;;;;;;;;5030564;28;20017;-79
2021/08/25 07:45:02;;;;;;;12.85;8.95;;;;;;;;;;5015892;28;20041;-79
2021/08/25 07:47:27;;;;;;;11.77;8.15;;;;;;;;;;5032252;28;20503;-79
2021/08/25 07:49:53;;;;;;;11.73;8.05;;;;;;;;;;5033608;28;20116;-79
2021/08/25 07:52:18;;;;;;;11.43;8.63;;;;;;;;;;5015870;28;20038;-78
2021/08/25 07:54:44;;;;;;;11.40;8.40;;;;;;;;;;5032239;28;20040;-78
2021/08/25 07:57:09;;;;;;;11.25;8.80;;;;;;;;;;5032099;28;20029;-78
2021/08/25 07:59:35;;;;;;;11.10;8.32;;;;;;;;;;5033379;28;20022;-79
2021/08/25 08:02:00;;;;;;;12.85;8.20;;;;;;;;;;5032240;28;20099;-79
2021/08/25 08:04:26;;;;;;;11.93;8.27;;;;;;;;;;5033148;28;20520;-79
2021/08/25 08:06:52;;;;;;;9.68;7.75;;;;;;;;;;5015997;28;20028;-79
2021/08/25 08:09:18;;;;;;;11.00;7.78;;;;;;;;;;5033477;28;20030;-79
2021/08/25 08:11:43;;;;;;;10.23;8.20;;;;;;;;;;5015892;28;20087;-79
2021/08/25 08:14:09;;;;;;;10.15;8.20;;;;;;;;;;5032132;28;20098;-78
2021/08/25 08:16:35;;;;;;;10.70;7.63;;;;;;;;;;4999187;28;20468;-79
2021/08/25 08:19:05;;;;;;;12.10;7.85;;;;;;;;;;5034426;28;20022;-79
2021/08/25 08:21:30;;;;;;;11.77;7.55;;;;;;;;;;5039786;28;20029;-79
2021/08/25 08:23:57;;;;;;;10.40;7.60;;;;;;;;;;5038751;28;20028;-79
2021/08/25 08:26:25;;;;;;;9.60;7.75;;;;;;;;;;5021754;28;20038;-79
2021/08/25 08:28:51;;;;;;;18.63;8.07;;;;;;;;;;5022275;28;20040;-79
2021/08/25 08:31:16;;;;;;;11.25;8.07;;;;;;;;;;5038349;28;20033;-79
2021/08/25 08:33:42;;;;;;;9.80;7.82;;;;;;;;;;5038575;28;20428;-79
2021/08/25 08:36:08;;;;;;;11.73;8.02;;;;;;;;;;5039421;28;20109;-79
2021/08/25 08:38:33;;;;;;;10.10;8.07;;;;;;;;;;5039596;28;20029;-79
2021/08/25 08:40:59;;;;;;;11.00;7.82;;;;;;;;;;5038130;28;20026;-79
2021/08/25 08:43:24;;;;;;;10.23;7.38;;;;;;;;;;5038213;28;20033;-79
2021/08/25 08:45:50;;;;;;;10.68;6.80;;;;;;;;;;5038374;28;20033;-79
2021/08/25 08:48:16;;;;;;;9.70;7.00;;;;;;;;;;5018701;28;20116;-79
2021/08/25 08:50:47;;;;;;;9.95;6.22;;;;;;;;;;5038830;28;20033;-79
2021/08/25 08:53:17;;;;;;;9.20;6.18;;;;;;;;;;5038327;28;20021;-79
2021/08/25 08:55:43;;;;;;;8.93;5.65;;;;;;;;;;5037995;28;20056;-79
2021/08/25 08:58:08;;;;;;;8.68;6.22;;;;;;;;;;5038397;28;20029;-79
2021/08/25 09:00:34;;;;;;;8.70;5.50;;;;;;;;;;5038177;28;20038;-79
2021/08/25 09:03:00;;;;;;;9.20;5.50;;;;;;;;;;5034900;28;20022;-79
2021/08/25 09:05:29;;;;;;;9.48;5.10;;;;;;;;;;5027509;28;20024;-79
2021/08/25 09:07:58;;;;;;;7.68;5.10;;;;;;;;;;5037963;28;20037;-79
2021/08/25 09:10:29;;;;;;;7.75;5.07;;;;;;;;;;5039200;28;20143;-79
2021/08/25 09:12:58;;;;;;;7.72;5.07;;;;;;;;;;5039397;28;20025;-79
2021/08/25 09:15:25;;;;;;;7.68;5.35;;;;;;;;;;5039389;28;20037;-79
2021/08/25 09:18:03;;;;;;;9.10;5.38;;;;;;;;;;5037969;28;20516;-79
2021/08/25 09:20:30;;;;;;;7.28;5.03;;;;;;;;;;5039100;28;20021;-79
2021/08/25 09:23:19;;;;;;;7.70;5.35;;;;;;;;;;5039119;28;20025;-79
2021/08/25 09:25:49;;;;;;;7.50;5.38;;;;;;;;;;5032983;28;20037;-79
2021/08/25 09:28:18;;;;;;;8.00;4.40;;;;;;;;;;5038360;28;20022;-79
2021/08/25 09:30:54;;;;;;;7.18;3.78;;;;;;;;;;5035815;28;20025;-79
2021/08/25 09:33:22;;;;;;;8.38;4.13;;;;;;;;;;5034660;28;20412;-79
2021/08/25 09:35:47;;;;;;;6.35;3.60;;;;;;;;;;5034722;28;20030;-79
2021/08/25 09:38:18;;;;;;;8.70;4.13;;;;;;;;;;5034739;28;20041;-79
2021/08/25 09:40:45;;;;;;;7.38;3.80;;;;;;;;;;5034420;28;20389;-79
2021/08/25 09:43:10;;;;;;;6.50;3.58;;;;;;;;;;5035998;28;20035;-79
2021/08/25 09:45:36;;;;;;;6.25;3.28;;;;;;;;;;5034386;28;20029;-79
2021/08/25 09:48:01;;;;;;;7.70;3.50;;;;;;;;;;5018250;28;20196;-79
2021/08/25 09:50:27;;;;;;;7.10;3.53;;;;;;;;;;5035840;28;20448;-79
2021/08/25 09:52:53;;;;;;;5.88;2.65;;;;;;;;;;5017444;28;20030;-79
2021/08/25 09:55:33;;;;;;;5.15;2.70;;;;;;;;;;5035769;28;20087;-79
2021/08/25 09:57:59;;;;;;;5.72;2.90;;;;;;;;;;5035772;28;20025;-79
2021/08/25 10:00:25;;;;;;;5.65;2.70;;;;;;;;;;5034531;28;20084;-79
2021/08/25 10:02:51;;;;;;;5.05;2.67;;;;;;;;;;5035416;28;20033;-79
2021/08/25 10:05:26;;;;;;;5.65;2.95;;;;;;;;;;5035551;28;20017;-79
2021/08/25 10:07:52;;;;;;;4.65;2.50;;;;;;;;;;5035513;28;20022;-79
2021/08/25 10:10:21;;;;;;;5.43;2.78;;;;;;;;;;5005967;28;20098;-79
2021/08/25 10:12:51;;;;;;;6.65;2.70;;;;;;;;;;5020826;28;20121;-79
2021/08/25 10:15:31;;;;;;;6.18;2.67;;;;;;;;;;5035083;28;20377;-79
2021/08/25 10:17:58;;;;;;;5.47;2.40;;;;;;;;;;5033759;28;20050;-79
2021/08/25 10:20:23;;;;;;;5.45;2.53;;;;;;;;;;5035442;28;20351;-79
2021/08/25 10:22:49;;;;;;;6.32;2.60;;;;;;;;;;5034033;28;20040;-79
2021/08/25 10:25:15;;;;;;;5.07;2.53;;;;;;;;;;5014030;28;20110;-79
2021/08/25 10:28:13;;;;;;;5.60;2.58;;;;;;;;;;5025609;28;20036;-79
2021/08/25 10:30:47;;;;;;;5.47;2.50;;;;;;;;;;5010619;28;20037;-79
2021/08/25 10:33:14;;;;;;;5.50;2.17;;;;;;;;;;5035105;28;20021;-79
2021/08/25 10:35:42;;;;;;;5.55;2.92;;;;;;;;;;5033894;28;20029;-79
2021/08/25 10:38:28;;;;;;;4.80;2.60;;;;;;;;;;5035168;28;20037;-79
2021/08/25 10:41:18;;;;;;;5.25;2.40;;;;;;;;;;5033846;28;20026;-80
2021/08/25 10:43:44;;;;;;;5.57;2.50;;;;;;;;;;5022297;28;20377;-80
2021/08/25 10:46:14;;;;;;;10.70;2.70;;;;;;;;;;5034959;28;20033;-80
2021/08/25 10:48:44;;;;;;;4.50;2.60;;;;;;;;;;5035908;28;20021;-80
2021/08/25 10:51:32;;;;;;;7.28;2.85;;;;;;;;;;5035240;28;20369;-80
2021/08/25 10:54:00;;;;;;;7.03;2.88;;;;;;;;;;5035841;28;20026;-80
2021/08/25 10:56:43;;;;;;;7.03;3.05;;;;;;;;;;5033808;28;20033;-80
2021/08/25 10:59:12;;;;;;;5.57;3.05;;;;;;;;;;5035785;28;20057;-80
2021/08/25 11:01:43;;;;;;;5.53;3.00;;;;;;;;;;5032172;28;20026;-80
2021/08/25 11:04:19;;;;;;;5.85;3.20;;;;;;;;;;5033602;28;20480;-80
2021/08/25 11:06:52;;;;;;;6.55;2.85;;;;;;;;;;5030223;28;20029;-80
2021/08/25 11:09:31;;;;;;;5.70;3.15;;;;;;;;;;5035379;28;20477;-80
2021/08/25 11:12:17;;;;;;;4.97;2.75;;;;;;;;;;5033752;28;20029;-80
2021/08/25 11:14:46;;;;;;;6.80;2.58;;;;;;;;;;5027582;28;20025;-80
2021/08/25 11:17:20;;;;;;;8.70;2.90;;;;;;;;;;5034604;28;20033;-80
2021/08/25 11:19:53;;;;;;;6.15;2.78;;;;;;;;;;5035135;28;20025;-80
2021/08/25 11:22:41;;;;;;;5.68;2.90;;;;;;;;;;5030780;28;20029;-80
2021/08/25 11:25:17;;;;;;;6.38;2.90;;;;;;;;;;5032144;28;20496;-80
2021/08/25 11:27:48;;;;;;;5.90;2.63;;;;;;;;;;5033249;28;20025;-80
2021/08/25 11:30:27;;;;;;;6.72;2.95;;;;;;;;;;5033607;28;20025;-80
2021/08/25 11:33:11;;;;;;;6.55;2.78;;;;;;;;;;5034118;28;20048;-80
2021/08/25 11:35:37;;;;;;;6.60;3.20;;;;;;;;;;5033031;28;20017;-80
2021/08/25 11:38:08;;;;;;;6.35;3.35;;;;;;;;;;5033968;28;20036;-80
2021/08/25 11:40:39;;;;;;;6.50;3.13;;;;;;;;;;5035002;28;20040;-80
2021/08/25 11:43:10;;;;;;;7.97;3.50;;;;;;;;;;5032654;28;20044;-80
2021/08/25 11:45:39;;;;;;;7.72;3.83;;;;;;;;;;5034355;28;20099;-80
2021/08/25 11:48:07;;;;;;;6.97;3.38;;;;;;;;;;5032424;28;20029;-80
2021/08/25 11:50:38;;;;;;;7.07;3.38;;;;;;;;;;4997361;28;20038;-80
2021/08/25 11:53:12;;;;;;;6.15;3.05;;;;;;;;;;5021983;28;20021;-80
2021/08/25 11:55:37;;;;;;;6.82;3.22;;;;;;;;;;5033795;28;20061;-80
2021/08/25 11:58:03;;;;;;;5.25;3.03;;;;;;;;;;5013043;28;20512;-80
2021/08/25 12:00:40;;;;;;;5.82;3.10;;;;;;;;;;5032959;28;20024;-80
2021/08/25 12:03:07;;;;;;;6.25;3.10;;;;;;;;;;5033930;28;20525;-80
2021/08/25 12:05:38;;;;;;;5.95;3.42;;;;;;;;;;5034161;28;20029;-80
2021/08/25 12:08:10;;;;;;;6.57;3.50;;;;;;;;;;5029328;28;20036;-80
2021/08/25 12:10:43;;;;;;;6.05;3.90;;;;;;;;;;5038521;28;20028;-80
2021/08/25 12:13:10;;;;;;;9.50;4.63;;;;;;;;;;5040802;28;20053;-80
2021/08/25 12:15:42;;;;;;;7.22;4.38;;;;;;;;;;5032141;28;20032;-81
2021/08/25 12:18:08;;;;;;;8.63;4.13;;;;;;;;;;5033637;28;20073;-81
2021/08/25 12:20:38;;;;;;;6.65;3.88;;;;;;;;;;5033083;28;20371;-81
2021/08/25 12:23:05;;;;;;;8.60;3.80;;;;;;;;;;5034119;28;20378;-81
2021/08/25 12:25:41;;;;;;;7.53;4.20;;;;;;;;;;5033410;28;20025;-81
2021/08/25 12:28:11;;;;;;;6.97;3.95;;;;;;;;;;5033741;28;20018;-81
2021/08/25 12:30:39;;;;;;;5.00;3.38;;;;;;;;;;5017265;28;20116;-81
2021/08/25 12:33:05;;;;;;;7.22;3.17;;;;;;;;;;5034198;28;20084;-81
2021/08/25 12:35:32;;;;;;;6.38;3.65;;;;;;;;;;5035437;28;20476;-81
2021/08/25 12:37:58;;;;;;;7.00;4.10;;;;;;;;;;5033921;28;20036;-81
2021/08/25 12:40:24;;;;;;;10.30;4.07;;;;;;;;;;5033330;28;20473;-81
2021/08/25 12:42:52;;;;;;;7.80;4.88;;;;;;;;;;5013265;28;20034;-81
2021/08/25 12:45:20;;;;;;;9.82;5.35;;;;;;;;;;5045418;28;20026;-81
2021/08/25 12:47:50;;;;;;;7.68;4.45;;;;;;;;;;5017476;28;20022;-81
2021/08/25 12:50:16;;;;;;;7.63;5.15;;;;;;;;;;5033611;28;20485;-81
2021/08/25 12:52:42;;;;;;;6.85;4.53;;;;;;;;;;5016533;28;20072;-81
2021/08/25 12:55:09;;;;;;;8.75;4.40;;;;;;;;;;5033084;28;20425;-81
2021/08/25 12:57:36;;;;;;;6.82;4.40;;;;;;;;;;5014996;28;20572;-81
2021/08/25 13:00:03;;;;;;;6.45;3.95;;;;;;;;;;5033154;28;20030;-81
2021/08/25 13:02:28;;;;;;;7.72;4.07;;;;;;;;;;5034057;28;20021;-81
2021/08/25 13:04:53;;;;;;;6.72;4.15;;;;;;;;;;5035743;28;20034;-81
2021/08/25 13:07:19;;;;;;;7.65;4.22;;;;;;;;;;5002430;28;20030;-81
2021/08/25 13:09:44;;;;;;;7.38;4.30;;;;;;;;;;5014234;28;20084;-81
2021/08/25 13:12:09;;;;;;;9.15;4.68;;;;;;;;;;5007614;28;20029;-82
2021/08/25 13:14:35;;;;;;;7.97;4.50;;;;;;;;;;5038503;28;20089;-82
2021/08/25 13:17:00;;;;;;;7.47;4.00;;;;;;;;;;5021881;28;20109;-82
2021/08/25 13:19:26;;;;;;;8.88;4.10;;;;;;;;;;5003579;28;20053;-82
2021/08/25 13:21:51;;;;;;;6.45;4.43;;;;;;;;;;5037572;28;20032;-82
2021/08/25 13:24:16;;;;;;;7.35;4.50;;;;;;;;;;5003896;28;20481;-82
2021/08/25 13:26:42;;;;;;;5.97;3.75;;;;;;;;;;5016340;28;20021;-82
2021/08/25 13:29:07;;;;;;;7.18;4.20;;;;;;;;;;5010824;28;20030;-82
2021/08/25 13:31:33;;;;;;;6.78;3.78;;;;;;;;;;5019005;28;20469;-82
2021/08/25 13:33:58;;;;;;;6.20;3.70;;;;;;;;;;5036531;28;20029;-82
2021/08/25 13:36:24;;;;;;;5.40;3.28;;;;;;;;;;5037078;28;20156;-82
2021/08/25 13:38:50;;;;;;;5.85;3.28;;;;;;;;;;5038238;28;20029;-82
2021/08/25 13:41:16;;;;;;;6.35;3.78;;;;;;;;;;5043530;28;20030;-82
2021/08/25 13:43:42;;;;;;;8.32;3.47;;;;;;;;;;5010522;28;20032;-83
2021/08/25 13:46:07;;;;;;;5.25;3.20;;;;;;;;;;5004069;28;20116;-83
2021/08/25 13:48:33;;;;;;;5.93;3.10;;;;;;;;;;5013674;28;20096;-82
2021/08/25 13:50:58;;;;;;;6.53;3.30;;;;;;;;;;5018860;28;20029;-82
2021/08/25 13:53:24;;;;;;;5.57;3.33;;;;;;;;;;5037124;28;20079;-82
2021/08/25 13:55:49;;;;;;;8.45;3.42;;;;;;;;;;5035859;28;20033;-82
2021/08/25 13:58:15;;;;;;;6.57;3.05;;;;;;;;;;5035791;28;20081;-83
2021/08/25 14:00:40;;;;;;;5.88;3.40;;;;;;;;;;5002703;28;20034;-82
2021/08/25 14:03:06;;;;;;;5.50;2.85;;;;;;;;;;5035074;28;20033;-83
2021/08/25 14:05:31;;;;;;;6.15;2.78;;;;;;;;;;5003416;28;20079;-83
2021/08/25 14:07:56;;;;;;;5.63;2.50;;;;;;;;;;5036260;28;20049;-83
2021/08/25 14:10:22;;;;;;;5.70;2.50;;;;;;;;;;5041514;28;20032;-83
2021/08/25 14:12:48;;;;;;;6.00;2.92;;;;;;;;;;5023895;28;20397;-83
2021/08/25 14:15:13;;;;;;;6.10;2.70;;;;;;;;;;5036100;28;20025;-83
2021/08/25 14:17:38;;;;;;;6.53;3.20;;;;;;;;;;5019300;28;20084;-83
2021/08/25 14:20:04;;;;;;;6.30;3.90;;;;;;;;;;5020281;28;20033;-83
2021/08/25 14:22:30;;;;;;;6.55;3.22;;;;;;;;;;5021322;28;20021;-83
2021/08/25 14:24:55;;;;;;;7.63;3.58;;;;;;;;;;5038866;28;20048;-83
2021/08/25 14:27:20;;;;;;;4.78;3.10;;;;;;;;;;5020883;28;20503;-83
2021/08/25 14:29:46;;;;;;;6.35;3.17;;;;;;;;;;5018237;28;20022;-83
2021/08/25 14:32:11;;;;;;;4.60;2.88;;;;;;;;;;5020781;28;20037;-83
2021/08/25 14:34:37;;;;;;;6.15;3.45;;;;;;;;;;5022156;28;20021;-83
2021/08/25 14:37:02;;;;;;;5.13;3.70;;;;;;;;;;5036872;28;20108;-83